sensor_id;sensor_type;location;lat;lon;timestamp;temperature;humidity
68842;SHT35;55849;48.482;2.332;2023-03-04T00:00:40;7.34;54.80
68842;SHT35;55849;48.482;2.332;2023-03-04T00:03:45;7.31;55.03
68842;SHT35;55849;48.482;2.332;2023-03-04T00:06:47;7.28;54.99
68842;SHT35;55849;48.482;2.332;2023-03-04T00:09:48;7.23;54.97
68842;SHT35;55849;48.482;2.332;2023-03-04T00:12:50;7.23;54.95
68842;SHT35;55849;48.482;2.332;2023-03-04T00:15:53;7.19;54.84
68842;SHT35;55849;48.482;2.332;2023-03-04T00:18:55;7.16;55.13
68842;SHT35;55849;48.482;2.332;2023-03-04T00:21:57;7.15;55.26
68842;SHT35;55849;48.482;2.332;2023-03-04T00:24:58;7.10;55.25
68842;SHT35;55849;48.482;2.332;2023-03-04T00:28:00;7.08;55.33
68842;SHT35;55849;48.482;2.332;2023-03-04T00:31:03;7.09;55.50
68842;SHT35;55849;48.482;2.332;2023-03-04T00:34:05;7.06;55.53
68842;SHT35;55849;48.482;2.332;2023-03-04T00:37:06;7.05;55.88
68842;SHT35;55849;48.482;2.332;2023-03-04T00:40:09;7.01;55.78
68842;SHT35;55849;48.482;2.332;2023-03-04T00:43:11;7.01;55.62
68842;SHT35;55849;48.482;2.332;2023-03-04T00:46:14;6.99;55.40
68842;SHT35;55849;48.482;2.332;2023-03-04T00:49:15;6.96;55.55
68842;SHT35;55849;48.482;2.332;2023-03-04T00:52:17;6.92;55.61
68842;SHT35;55849;48.482;2.332;2023-03-04T00:55:19;6.91;55.79
68842;SHT35;55849;48.482;2.332;2023-03-04T00:58:20;6.87;55.58
68842;SHT35;55849;48.482;2.332;2023-03-04T01:01:23;6.85;55.85
68842;SHT35;55849;48.482;2.332;2023-03-04T01:04:25;6.81;55.83
68842;SHT35;55849;48.482;2.332;2023-03-04T01:07:26;6.78;56.05
68842;SHT35;55849;48.482;2.332;2023-03-04T01:10:28;6.78;56.26
68842;SHT35;55849;48.482;2.332;2023-03-04T01:13:30;6.75;56.22
68842;SHT35;55849;48.482;2.332;2023-03-04T01:16:33;6.73;56.34
68842;SHT35;55849;48.482;2.332;2023-03-04T01:19:35;6.71;56.48
68842;SHT35;55849;48.482;2.332;2023-03-04T01:22:36;6.68;56.22
68842;SHT35;55849;48.482;2.332;2023-03-04T01:25:38;6.70;56.24
68842;SHT35;55849;48.482;2.332;2023-03-04T01:28:40;6.63;56.45
68842;SHT35;55849;48.482;2.332;2023-03-04T01:31:43;6.63;56.48
68842;SHT35;55849;48.482;2.332;2023-03-04T01:34:44;6.63;56.21
68842;SHT35;55849;48.482;2.332;2023-03-04T01:37:46;6.60;56.10
68842;SHT35;55849;48.482;2.332;2023-03-04T01:40:47;6.56;56.15
68842;SHT35;55849;48.482;2.332;2023-03-04T01:43:49;6.56;56.38
68842;SHT35;55849;48.482;2.332;2023-03-04T01:46:53;6.51;56.41
68842;SHT35;55849;48.482;2.332;2023-03-04T01:49:56;6.50;56.59
68842;SHT35;55849;48.482;2.332;2023-03-04T01:52:59;6.50;56.55
68842;SHT35;55849;48.482;2.332;2023-03-04T01:56:02;6.47;56.36
68842;SHT35;55849;48.482;2.332;2023-03-04T01:59:10;6.44;56.32
68842;SHT35;55849;48.482;2.332;2023-03-04T02:02:13;6.40;56.25
68842;SHT35;55849;48.482;2.332;2023-03-04T02:05:16;6.39;56.16
68842;SHT35;55849;48.482;2.332;2023-03-04T02:08:20;6.36;56.32
68842;SHT35;55849;48.482;2.332;2023-03-04T02:11:21;6.32;56.33
68842;SHT35;55849;48.482;2.332;2023-03-04T02:14:23;6.28;56.58
68842;SHT35;55849;48.482;2.332;2023-03-04T02:17:27;6.29;56.69
68842;SHT35;55849;48.482;2.332;2023-03-04T02:20:38;6.25;56.46
68842;SHT35;55849;48.482;2.332;2023-03-04T02:23:48;6.22;56.56
68842;SHT35;55849;48.482;2.332;2023-03-04T02:26:53;6.21;56.67
68842;SHT35;55849;48.482;2.332;2023-03-04T02:29:55;6.21;56.44
68842;SHT35;55849;48.482;2.332;2023-03-04T02:32:56;6.16;56.81
68842;SHT35;55849;48.482;2.332;2023-03-04T02:35:58;6.16;56.61
68842;SHT35;55849;48.482;2.332;2023-03-04T02:39:03;6.13;56.92
68842;SHT35;55849;48.482;2.332;2023-03-04T02:42:07;6.15;56.87
68842;SHT35;55849;48.482;2.332;2023-03-04T02:45:30;6.12;57.43
68842;SHT35;55849;48.482;2.332;2023-03-04T02:48:35;6.12;57.46
68842;SHT35;55849;48.482;2.332;2023-03-04T02:51:37;6.08;57.48
68842;SHT35;55849;48.482;2.332;2023-03-04T02:54:38;6.09;57.46
68842;SHT35;55849;48.482;2.332;2023-03-04T02:57:41;6.05;57.41
68842;SHT35;55849;48.482;2.332;2023-03-04T03:00:43;6.05;57.24
68842;SHT35;55849;48.482;2.332;2023-03-04T03:03:45;6.06;57.41
68842;SHT35;55849;48.482;2.332;2023-03-04T03:06:46;6.04;57.27
68842;SHT35;55849;48.482;2.332;2023-03-04T03:09:48;6.05;57.61
68842;SHT35;55849;48.482;2.332;2023-03-04T03:12:51;5.99;57.38
68842;SHT35;55849;48.482;2.332;2023-03-04T03:15:53;5.98;57.35
68842;SHT35;55849;48.482;2.332;2023-03-04T03:18:55;5.97;57.05
68842;SHT35;55849;48.482;2.332;2023-03-04T03:21:56;5.93;57.14
68842;SHT35;55849;48.482;2.332;2023-03-04T03:24:58;5.93;57.21
68842;SHT35;55849;48.482;2.332;2023-03-04T03:28:01;5.88;57.68
68842;SHT35;55849;48.482;2.332;2023-03-04T03:31:02;5.88;57.71
68842;SHT35;55849;48.482;2.332;2023-03-04T03:34:04;5.88;57.34
68842;SHT35;55849;48.482;2.332;2023-03-04T03:37:06;5.86;57.43
68842;SHT35;55849;48.482;2.332;2023-03-04T03:40:08;5.86;57.33
68842;SHT35;55849;48.482;2.332;2023-03-04T03:43:12;5.83;57.30
68842;SHT35;55849;48.482;2.332;2023-03-04T03:46:14;5.78;57.64
68842;SHT35;55849;48.482;2.332;2023-03-04T03:49:15;5.83;57.69
68842;SHT35;55849;48.482;2.332;2023-03-04T03:52:17;5.80;57.64
68842;SHT35;55849;48.482;2.332;2023-03-04T03:55:19;5.78;57.76
68842;SHT35;55849;48.482;2.332;2023-03-04T03:58:22;5.78;57.80
68842;SHT35;55849;48.482;2.332;2023-03-04T04:01:23;5.78;57.94
68842;SHT35;55849;48.482;2.332;2023-03-04T04:04:25;5.78;58.17
68842;SHT35;55849;48.482;2.332;2023-03-04T04:07:26;5.75;57.92
68842;SHT35;55849;48.482;2.332;2023-03-04T04:10:28;5.75;58.01
68842;SHT35;55849;48.482;2.332;2023-03-04T04:13:32;5.74;58.24
68842;SHT35;55849;48.482;2.332;2023-03-04T04:16:34;5.73;58.08
68842;SHT35;55849;48.482;2.332;2023-03-04T04:19:36;5.69;58.19
68842;SHT35;55849;48.482;2.332;2023-03-04T04:22:39;5.71;58.53
68842;SHT35;55849;48.482;2.332;2023-03-04T04:25:41;5.69;58.33
68842;SHT35;55849;48.482;2.332;2023-03-04T04:28:44;5.69;58.33
68842;SHT35;55849;48.482;2.332;2023-03-04T04:31:45;5.66;58.02
68842;SHT35;55849;48.482;2.332;2023-03-04T04:34:47;5.62;58.05
68842;SHT35;55849;48.482;2.332;2023-03-04T04:37:48;5.63;57.67
68842;SHT35;55849;48.482;2.332;2023-03-04T04:40:50;5.59;57.61
68842;SHT35;55849;48.482;2.332;2023-03-04T04:43:53;5.56;57.64
68842;SHT35;55849;48.482;2.332;2023-03-04T04:46:54;5.54;57.52
68842;SHT35;55849;48.482;2.332;2023-03-04T04:49:56;5.53;57.70
68842;SHT35;55849;48.482;2.332;2023-03-04T04:52:58;5.49;57.77
68842;SHT35;55849;48.482;2.332;2023-03-04T04:55:59;5.46;57.85
68842;SHT35;55849;48.482;2.332;2023-03-04T04:59:04;5.45;57.58
68842;SHT35;55849;48.482;2.332;2023-03-04T05:02:07;5.42;58.25
68842;SHT35;55849;48.482;2.332;2023-03-04T05:05:08;5.40;57.91
68842;SHT35;55849;48.482;2.332;2023-03-04T05:08:10;5.38;58.29
68842;SHT35;55849;48.482;2.332;2023-03-04T05:11:12;5.40;58.25
68842;SHT35;55849;48.482;2.332;2023-03-04T05:14:15;5.38;58.33
68842;SHT35;55849;48.482;2.332;2023-03-04T05:17:17;5.38;58.38
68842;SHT35;55849;48.482;2.332;2023-03-04T05:20:18;5.38;58.55
68842;SHT35;55849;48.482;2.332;2023-03-04T05:23:20;5.36;58.59
68842;SHT35;55849;48.482;2.332;2023-03-04T05:26:22;5.36;58.64
68842;SHT35;55849;48.482;2.332;2023-03-04T05:29:25;5.32;58.77
68842;SHT35;55849;48.482;2.332;2023-03-04T05:32:27;5.29;59.41
68842;SHT35;55849;48.482;2.332;2023-03-04T05:35:28;5.31;59.43
68842;SHT35;55849;48.482;2.332;2023-03-04T05:38:30;5.32;59.16
68842;SHT35;55849;48.482;2.332;2023-03-04T05:41:31;5.32;58.99
68842;SHT35;55849;48.482;2.332;2023-03-04T05:44:34;5.32;59.24
68842;SHT35;55849;48.482;2.332;2023-03-04T05:47:36;5.31;59.46
68842;SHT35;55849;48.482;2.332;2023-03-04T05:50:37;5.29;59.34
68842;SHT35;55849;48.482;2.332;2023-03-04T05:53:40;5.34;59.28
68842;SHT35;55849;48.482;2.332;2023-03-04T05:56:41;5.29;59.48
68842;SHT35;55849;48.482;2.332;2023-03-04T05:59:44;5.28;59.32
68842;SHT35;55849;48.482;2.332;2023-03-04T06:02:46;5.28;59.58
68842;SHT35;55849;48.482;2.332;2023-03-04T06:05:48;5.27;59.36
68842;SHT35;55849;48.482;2.332;2023-03-04T06:08:49;5.29;59.39
68842;SHT35;55849;48.482;2.332;2023-03-04T06:11:51;5.27;59.24
68842;SHT35;55849;48.482;2.332;2023-03-04T06:14:54;5.27;59.21
68842;SHT35;55849;48.482;2.332;2023-03-04T06:17:55;5.24;59.36
68842;SHT35;55849;48.482;2.332;2023-03-04T06:20:58;5.24;59.33
68842;SHT35;55849;48.482;2.332;2023-03-04T06:24:00;5.19;59.15
68842;SHT35;55849;48.482;2.332;2023-03-04T06:27:03;5.21;59.25
68842;SHT35;55849;48.482;2.332;2023-03-04T06:30:08;5.18;58.93
68842;SHT35;55849;48.482;2.332;2023-03-04T06:33:10;5.17;59.04
68842;SHT35;55849;48.482;2.332;2023-03-04T06:36:12;5.17;59.03
68842;SHT35;55849;48.482;2.332;2023-03-04T06:39:13;5.15;58.87
68842;SHT35;55849;48.482;2.332;2023-03-04T06:42:15;5.11;59.31
68842;SHT35;55849;48.482;2.332;2023-03-04T06:45:18;5.10;59.26
68842;SHT35;55849;48.482;2.332;2023-03-04T06:48:20;5.10;59.08
68842;SHT35;55849;48.482;2.332;2023-03-04T06:51:21;5.07;59.21
68842;SHT35;55849;48.482;2.332;2023-03-04T06:54:23;5.07;59.35
68842;SHT35;55849;48.482;2.332;2023-03-04T06:57:25;5.08;59.42
68842;SHT35;55849;48.482;2.332;2023-03-04T07:00:28;5.08;59.13
68842;SHT35;55849;48.482;2.332;2023-03-04T07:03:29;5.07;59.35
68842;SHT35;55849;48.482;2.332;2023-03-04T07:06:31;5.05;59.33
68842;SHT35;55849;48.482;2.332;2023-03-04T07:09:33;5.07;59.67
68842;SHT35;55849;48.482;2.332;2023-03-04T07:12:34;5.07;60.01
68842;SHT35;55849;48.482;2.332;2023-03-04T07:15:37;5.10;60.12
68842;SHT35;55849;48.482;2.332;2023-03-04T07:18:39;5.11;59.99
68842;SHT35;55849;48.482;2.332;2023-03-04T07:21:41;5.11;59.95
68842;SHT35;55849;48.482;2.332;2023-03-04T07:24:42;5.10;60.02
68842;SHT35;55849;48.482;2.332;2023-03-04T07:27:44;5.12;60.10
68842;SHT35;55849;48.482;2.332;2023-03-04T07:30:47;5.14;60.29
68842;SHT35;55849;48.482;2.332;2023-03-04T07:33:48;5.15;60.66
68842;SHT35;55849;48.482;2.332;2023-03-04T07:36:50;5.17;61.11
68842;SHT35;55849;48.482;2.332;2023-03-04T07:39:51;5.15;61.21
68842;SHT35;55849;48.482;2.332;2023-03-04T07:42:54;5.21;61.36
68842;SHT35;55849;48.482;2.332;2023-03-04T07:46:01;5.22;61.44
68842;SHT35;55849;48.482;2.332;2023-03-04T07:49:02;5.25;61.47
68842;SHT35;55849;48.482;2.332;2023-03-04T07:52:05;5.31;61.48
68842;SHT35;55849;48.482;2.332;2023-03-04T07:55:07;5.36;61.57
68842;SHT35;55849;48.482;2.332;2023-03-04T07:58:09;5.35;61.60
68842;SHT35;55849;48.482;2.332;2023-03-04T08:01:14;5.39;61.70
68842;SHT35;55849;48.482;2.332;2023-03-04T08:04:17;5.43;61.64
68842;SHT35;55849;48.482;2.332;2023-03-04T08:07:18;5.43;61.70
68842;SHT35;55849;48.482;2.332;2023-03-04T08:10:20;5.50;62.03
68842;SHT35;55849;48.482;2.332;2023-03-04T08:13:21;5.52;61.98
68842;SHT35;55849;48.482;2.332;2023-03-04T08:16:25;5.53;62.09
68842;SHT35;55849;48.482;2.332;2023-03-04T08:19:27;5.56;62.23
68842;SHT35;55849;48.482;2.332;2023-03-04T08:22:28;5.63;62.11
68842;SHT35;55849;48.482;2.332;2023-03-04T08:25:30;5.64;62.30
68842;SHT35;55849;48.482;2.332;2023-03-04T08:28:31;5.70;62.40
68842;SHT35;55849;48.482;2.332;2023-03-04T08:31:35;5.71;62.57
68842;SHT35;55849;48.482;2.332;2023-03-04T08:34:38;5.75;62.61
68842;SHT35;55849;48.482;2.332;2023-03-04T08:37:39;5.80;62.67
68842;SHT35;55849;48.482;2.332;2023-03-04T08:40:41;5.83;62.55
68842;SHT35;55849;48.482;2.332;2023-03-04T08:43:43;5.87;62.79
68842;SHT35;55849;48.482;2.332;2023-03-04T08:46:46;5.90;62.67
68842;SHT35;55849;48.482;2.332;2023-03-04T08:49:48;5.94;62.49
68842;SHT35;55849;48.482;2.332;2023-03-04T08:52:49;5.99;62.84
68842;SHT35;55849;48.482;2.332;2023-03-04T08:55:51;6.02;62.77
68842;SHT35;55849;48.482;2.332;2023-03-04T08:58:53;6.08;62.55
68842;SHT35;55849;48.482;2.332;2023-03-04T09:01:56;6.12;62.90
68842;SHT35;55849;48.482;2.332;2023-03-04T09:04:57;6.15;63.07
68842;SHT35;55849;48.482;2.332;2023-03-04T09:07:59;6.18;62.94
68842;SHT35;55849;48.482;2.332;2023-03-04T09:11:01;6.28;63.10
68842;SHT35;55849;48.482;2.332;2023-03-04T09:14:03;6.30;62.97
68842;SHT35;55849;48.482;2.332;2023-03-04T09:17:06;6.36;62.61
68842;SHT35;55849;48.482;2.332;2023-03-04T09:20:09;6.41;62.94
68842;SHT35;55849;48.482;2.332;2023-03-04T09:23:12;6.43;62.79
68842;SHT35;55849;48.482;2.332;2023-03-04T09:26:16;6.53;62.62
68842;SHT35;55849;48.482;2.332;2023-03-04T09:29:18;6.56;62.99
68842;SHT35;55849;48.482;2.332;2023-03-04T09:32:21;6.64;63.64
68842;SHT35;55849;48.482;2.332;2023-03-04T09:35:22;6.75;63.26
68842;SHT35;55849;48.482;2.332;2023-03-04T09:38:24;6.84;63.24
68842;SHT35;55849;48.482;2.332;2023-03-04T09:41:33;6.99;63.15
68842;SHT35;55849;48.482;2.332;2023-03-04T09:44:39;7.10;62.76
68842;SHT35;55849;48.482;2.332;2023-03-04T09:47:43;7.22;61.90
68842;SHT35;55849;48.482;2.332;2023-03-04T09:50:56;7.27;61.94
68842;SHT35;55849;48.482;2.332;2023-03-04T09:54:06;7.37;61.76
68842;SHT35;55849;48.482;2.332;2023-03-04T09:57:20;7.46;61.29
68842;SHT35;55849;48.482;2.332;2023-03-04T10:00:25;7.54;61.18
68842;SHT35;55849;48.482;2.332;2023-03-04T10:03:40;7.58;61.06
68842;SHT35;55849;48.482;2.332;2023-03-04T10:06:43;7.67;60.82
68842;SHT35;55849;48.482;2.332;2023-03-04T10:09:54;7.77;60.41
68842;SHT35;55849;48.482;2.332;2023-03-04T10:13:00;7.82;60.39
68842;SHT35;55849;48.482;2.332;2023-03-04T10:16:04;7.89;59.66
68842;SHT35;55849;48.482;2.332;2023-03-04T10:19:23;7.96;60.09
68842;SHT35;55849;48.482;2.332;2023-03-04T10:22:32;8.03;59.72
68842;SHT35;55849;48.482;2.332;2023-03-04T10:25:38;8.12;59.42
68842;SHT35;55849;48.482;2.332;2023-03-04T10:28:42;8.19;59.35
68842;SHT35;55849;48.482;2.332;2023-03-04T10:31:44;8.23;58.99
68842;SHT35;55849;48.482;2.332;2023-03-04T10:34:47;8.29;58.76
68842;SHT35;55849;48.482;2.332;2023-03-04T10:37:49;8.34;58.46
68842;SHT35;55849;48.482;2.332;2023-03-04T10:40:52;8.38;58.54
68842;SHT35;55849;48.482;2.332;2023-03-04T10:44:01;8.41;58.23
68842;SHT35;55849;48.482;2.332;2023-03-04T10:47:08;8.44;58.13
68842;SHT35;55849;48.482;2.332;2023-03-04T10:50:21;8.49;58.24
68842;SHT35;55849;48.482;2.332;2023-03-04T10:53:36;8.55;58.42
68842;SHT35;55849;48.482;2.332;2023-03-04T10:56:39;8.62;58.08
68842;SHT35;55849;48.482;2.332;2023-03-04T10:59:45;8.68;57.80
68842;SHT35;55849;48.482;2.332;2023-03-04T11:02:49;8.72;58.11
68842;SHT35;55849;48.482;2.332;2023-03-04T11:06:06;8.76;57.54
68842;SHT35;55849;48.482;2.332;2023-03-04T11:09:20;8.80;57.32
68842;SHT35;55849;48.482;2.332;2023-03-04T11:12:33;8.84;57.01
68842;SHT35;55849;48.482;2.332;2023-03-04T11:15:48;8.89;57.18
68842;SHT35;55849;48.482;2.332;2023-03-04T11:18:53;8.93;57.06
68842;SHT35;55849;48.482;2.332;2023-03-04T11:21:57;8.94;56.78
68842;SHT35;55849;48.482;2.332;2023-03-04T11:25:06;9.00;56.84
68842;SHT35;55849;48.482;2.332;2023-03-04T11:28:14;9.06;56.63
68842;SHT35;55849;48.482;2.332;2023-03-04T11:31:21;9.10;56.51
68842;SHT35;55849;48.482;2.332;2023-03-04T11:34:32;9.14;56.45
68842;SHT35;55849;48.482;2.332;2023-03-04T11:37:40;9.18;56.37
68842;SHT35;55849;48.482;2.332;2023-03-04T11:40:47;9.23;56.31
68842;SHT35;55849;48.482;2.332;2023-03-04T11:43:50;9.27;56.20
68842;SHT35;55849;48.482;2.332;2023-03-04T11:47:16;9.32;56.96
68842;SHT35;55849;48.482;2.332;2023-03-04T11:50:34;9.35;56.06
68842;SHT35;55849;48.482;2.332;2023-03-04T11:53:48;9.36;55.82
68842;SHT35;55849;48.482;2.332;2023-03-04T11:56:57;9.41;55.73
68842;SHT35;55849;48.482;2.332;2023-03-04T12:00:16;9.45;55.63
68842;SHT35;55849;48.482;2.332;2023-03-04T12:03:50;9.51;55.45
68842;SHT35;55849;48.482;2.332;2023-03-04T12:07:04;9.53;55.50
68842;SHT35;55849;48.482;2.332;2023-03-04T12:10:17;9.56;55.15
68842;SHT35;55849;48.482;2.332;2023-03-04T12:13:32;9.60;55.33
68842;SHT35;55849;48.482;2.332;2023-03-04T12:17:00;9.65;55.52
68842;SHT35;55849;48.482;2.332;2023-03-04T12:20:17;9.69;55.34
68842;SHT35;55849;48.482;2.332;2023-03-04T12:23:32;9.75;55.43
68842;SHT35;55849;48.482;2.332;2023-03-04T12:26:48;9.76;54.75
68842;SHT35;55849;48.482;2.332;2023-03-04T12:29:56;9.83;54.90
68842;SHT35;55849;48.482;2.332;2023-03-04T12:33:06;9.86;55.46
68842;SHT35;55849;48.482;2.332;2023-03-04T12:36:17;9.89;54.97
68842;SHT35;55849;48.482;2.332;2023-03-04T12:39:29;9.95;55.40
68842;SHT35;55849;48.482;2.332;2023-03-04T12:42:42;9.98;54.43
68842;SHT35;55849;48.482;2.332;2023-03-04T12:45:54;10.00;54.74
68842;SHT35;55849;48.482;2.332;2023-03-04T12:49:12;10.01;54.44
68842;SHT35;55849;48.482;2.332;2023-03-04T12:52:23;10.07;54.63
68842;SHT35;55849;48.482;2.332;2023-03-04T12:55:34;10.10;53.89
68842;SHT35;55849;48.482;2.332;2023-03-04T12:58:38;10.07;54.15
68842;SHT35;55849;48.482;2.332;2023-03-04T13:01:42;10.08;53.95
68842;SHT35;55849;48.482;2.332;2023-03-04T13:04:55;10.05;54.03
68842;SHT35;55849;48.482;2.332;2023-03-04T13:08:07;10.08;53.91
68842;SHT35;55849;48.482;2.332;2023-03-04T13:15:26;10.11;54.30
68842;SHT35;55849;48.482;2.332;2023-03-04T13:18:30;10.11;54.37
68842;SHT35;55849;48.482;2.332;2023-03-04T13:21:43;10.12;54.04
68842;SHT35;55849;48.482;2.332;2023-03-04T13:24:47;10.12;54.83
68842;SHT35;55849;48.482;2.332;2023-03-04T13:28:05;10.12;54.32
68842;SHT35;55849;48.482;2.332;2023-03-04T13:31:16;10.15;54.39
68842;SHT35;55849;48.482;2.332;2023-03-04T13:34:46;10.17;53.99
68842;SHT35;55849;48.482;2.332;2023-03-04T13:37:56;10.15;53.93
68842;SHT35;55849;48.482;2.332;2023-03-04T13:41:11;10.15;53.84
68842;SHT35;55849;48.482;2.332;2023-03-04T13:47:52;10.15;53.72
68842;SHT35;55849;48.482;2.332;2023-03-04T13:50:54;10.18;54.18
68842;SHT35;55849;48.482;2.332;2023-03-04T13:54:06;10.19;54.01
68842;SHT35;55849;48.482;2.332;2023-03-04T13:57:17;10.22;53.80
68842;SHT35;55849;48.482;2.332;2023-03-04T14:00:19;10.19;53.63
68842;SHT35;55849;48.482;2.332;2023-03-04T14:03:24;10.22;53.99
68842;SHT35;55849;48.482;2.332;2023-03-04T14:06:27;10.21;53.93
68842;SHT35;55849;48.482;2.332;2023-03-04T14:09:30;10.21;53.81
68842;SHT35;55849;48.482;2.332;2023-03-04T14:12:34;10.25;53.98
68842;SHT35;55849;48.482;2.332;2023-03-04T14:15:37;10.28;54.42
68842;SHT35;55849;48.482;2.332;2023-03-04T14:18:40;10.28;54.25
68842;SHT35;55849;48.482;2.332;2023-03-04T14:21:45;10.29;53.87
68842;SHT35;55849;48.482;2.332;2023-03-04T14:24:55;10.28;53.82
68842;SHT35;55849;48.482;2.332;2023-03-04T14:28:05;10.27;53.96
68842;SHT35;55849;48.482;2.332;2023-03-04T14:31:15;10.28;54.16
68842;SHT35;55849;48.482;2.332;2023-03-04T14:34:24;10.29;54.06
68842;SHT35;55849;48.482;2.332;2023-03-04T14:37:31;10.28;54.01
68842;SHT35;55849;48.482;2.332;2023-03-04T14:47:18;10.32;54.33
68842;SHT35;55849;48.482;2.332;2023-03-04T14:50:22;10.34;54.30
68842;SHT35;55849;48.482;2.332;2023-03-04T14:53:25;10.35;53.89
68842;SHT35;55849;48.482;2.332;2023-03-04T14:56:29;10.32;53.61
68842;SHT35;55849;48.482;2.332;2023-03-04T14:59:32;10.32;54.53
68842;SHT35;55849;48.482;2.332;2023-03-04T15:02:37;10.34;53.66
68842;SHT35;55849;48.482;2.332;2023-03-04T15:05:41;10.34;53.81
68842;SHT35;55849;48.482;2.332;2023-03-04T15:08:43;10.32;53.53
68842;SHT35;55849;48.482;2.332;2023-03-04T15:11:47;10.31;53.57
68842;SHT35;55849;48.482;2.332;2023-03-04T15:14:50;10.34;54.06
68842;SHT35;55849;48.482;2.332;2023-03-04T15:17:57;10.32;53.62
68842;SHT35;55849;48.482;2.332;2023-03-04T15:21:02;10.32;53.59
68842;SHT35;55849;48.482;2.332;2023-03-04T15:24:05;10.31;53.72
68842;SHT35;55849;48.482;2.332;2023-03-04T15:27:09;10.29;53.44
68842;SHT35;55849;48.482;2.332;2023-03-04T15:30:16;10.28;53.91
68842;SHT35;55849;48.482;2.332;2023-03-04T15:33:18;10.28;54.00
68842;SHT35;55849;48.482;2.332;2023-03-04T15:36:22;10.28;54.04
68842;SHT35;55849;48.482;2.332;2023-03-04T15:39:24;10.27;53.63
68842;SHT35;55849;48.482;2.332;2023-03-04T15:42:29;10.28;53.76
68842;SHT35;55849;48.482;2.332;2023-03-04T15:45:32;10.29;53.54
68842;SHT35;55849;48.482;2.332;2023-03-04T15:48:39;10.29;53.66
68842;SHT35;55849;48.482;2.332;2023-03-04T15:51:43;10.28;53.78
68842;SHT35;55849;48.482;2.332;2023-03-04T15:54:45;10.25;53.68
68842;SHT35;55849;48.482;2.332;2023-03-04T15:57:54;10.31;53.92
68842;SHT35;55849;48.482;2.332;2023-03-04T16:00:59;10.28;53.96
68842;SHT35;55849;48.482;2.332;2023-03-04T16:04:01;10.29;53.64
68842;SHT35;55849;48.482;2.332;2023-03-04T16:07:05;10.28;54.41
68842;SHT35;55849;48.482;2.332;2023-03-04T16:10:12;10.28;54.02
68842;SHT35;55849;48.482;2.332;2023-03-04T16:13:18;10.25;54.05
68842;SHT35;55849;48.482;2.332;2023-03-04T16:16:20;10.22;53.68
68842;SHT35;55849;48.482;2.332;2023-03-04T16:19:22;10.19;53.68
68842;SHT35;55849;48.482;2.332;2023-03-04T16:22:28;10.18;53.74
68842;SHT35;55849;48.482;2.332;2023-03-04T16:25:31;10.17;53.58
68842;SHT35;55849;48.482;2.332;2023-03-04T16:28:32;10.17;53.55
68842;SHT35;55849;48.482;2.332;2023-03-04T16:31:34;10.17;53.74
68842;SHT35;55849;48.482;2.332;2023-03-04T16:34:36;10.14;53.68
68842;SHT35;55849;48.482;2.332;2023-03-04T16:37:40;10.11;53.90
68842;SHT35;55849;48.482;2.332;2023-03-04T16:40:42;10.08;53.67
68842;SHT35;55849;48.482;2.332;2023-03-04T16:43:44;10.03;53.68
68842;SHT35;55849;48.482;2.332;2023-03-04T16:46:46;10.03;53.79
68842;SHT35;55849;48.482;2.332;2023-03-04T16:49:48;10.03;54.12
68842;SHT35;55849;48.482;2.332;2023-03-04T16:52:53;10.00;54.01
68842;SHT35;55849;48.482;2.332;2023-03-04T16:55:57;9.97;54.01
68842;SHT35;55849;48.482;2.332;2023-03-04T16:59:01;9.95;54.09
68842;SHT35;55849;48.482;2.332;2023-03-04T17:02:05;9.95;53.81
68842;SHT35;55849;48.482;2.332;2023-03-04T17:05:14;9.94;54.05
68842;SHT35;55849;48.482;2.332;2023-03-04T17:08:19;9.94;54.16
68842;SHT35;55849;48.482;2.332;2023-03-04T17:11:22;9.93;54.42
68842;SHT35;55849;48.482;2.332;2023-03-04T17:14:24;9.91;54.28
68842;SHT35;55849;48.482;2.332;2023-03-04T17:17:26;9.90;53.99
68842;SHT35;55849;48.482;2.332;2023-03-04T17:20:28;9.90;54.17
68842;SHT35;55849;48.482;2.332;2023-03-04T17:23:31;9.87;54.01
68842;SHT35;55849;48.482;2.332;2023-03-04T17:26:34;9.87;54.03
68842;SHT35;55849;48.482;2.332;2023-03-04T17:29:36;9.89;54.28
68842;SHT35;55849;48.482;2.332;2023-03-04T17:32:38;9.83;54.30
68842;SHT35;55849;48.482;2.332;2023-03-04T17:35:40;9.80;54.41
68842;SHT35;55849;48.482;2.332;2023-03-04T17:38:44;9.82;54.41
68842;SHT35;55849;48.482;2.332;2023-03-04T17:41:51;9.79;54.33
68842;SHT35;55849;48.482;2.332;2023-03-04T17:44:53;9.77;54.33
68842;SHT35;55849;48.482;2.332;2023-03-04T17:47:55;9.76;54.61
68842;SHT35;55849;48.482;2.332;2023-03-04T17:50:57;9.72;54.53
68842;SHT35;55849;48.482;2.332;2023-03-04T17:54:01;9.73;54.35
68842;SHT35;55849;48.482;2.332;2023-03-04T17:57:05;9.75;54.52
68842;SHT35;55849;48.482;2.332;2023-03-04T18:00:10;9.70;54.42
68842;SHT35;55849;48.482;2.332;2023-03-04T18:03:12;9.69;54.31
68842;SHT35;55849;48.482;2.332;2023-03-04T18:06:15;9.67;54.34
68842;SHT35;55849;48.482;2.332;2023-03-04T18:09:19;9.66;54.33
68842;SHT35;55849;48.482;2.332;2023-03-04T18:12:21;9.62;54.10
68842;SHT35;55849;48.482;2.332;2023-03-04T18:15:23;9.60;54.17
68842;SHT35;55849;48.482;2.332;2023-03-04T18:18:24;9.58;54.11
68842;SHT35;55849;48.482;2.332;2023-03-04T18:21:28;9.60;53.96
68842;SHT35;55849;48.482;2.332;2023-03-04T18:24:31;9.59;54.06
68842;SHT35;55849;48.482;2.332;2023-03-04T18:27:33;9.56;54.10
68842;SHT35;55849;48.482;2.332;2023-03-04T18:30:39;9.56;54.18
68842;SHT35;55849;48.482;2.332;2023-03-04T18:33:41;9.58;54.17
68842;SHT35;55849;48.482;2.332;2023-03-04T18:36:43;9.53;54.33
68842;SHT35;55849;48.482;2.332;2023-03-04T18:39:48;9.58;54.42
68842;SHT35;55849;48.482;2.332;2023-03-04T18:42:50;9.58;54.65
68842;SHT35;55849;48.482;2.332;2023-03-04T18:45:59;9.56;54.59
68842;SHT35;55849;48.482;2.332;2023-03-04T18:49:04;9.55;54.58
68842;SHT35;55849;48.482;2.332;2023-03-04T18:52:08;9.53;54.26
68842;SHT35;55849;48.482;2.332;2023-03-04T18:55:11;9.55;54.74
68842;SHT35;55849;48.482;2.332;2023-03-04T18:58:13;9.52;54.62
68842;SHT35;55849;48.482;2.332;2023-03-04T19:01:17;9.51;54.63
68842;SHT35;55849;48.482;2.332;2023-03-04T19:04:22;9.51;54.88
68842;SHT35;55849;48.482;2.332;2023-03-04T19:07:26;9.53;54.81
68842;SHT35;55849;48.482;2.332;2023-03-04T19:10:30;9.53;54.67
68842;SHT35;55849;48.482;2.332;2023-03-04T19:13:32;9.52;54.64
68842;SHT35;55849;48.482;2.332;2023-03-04T19:16:34;9.53;54.66
68842;SHT35;55849;48.482;2.332;2023-03-04T19:19:36;9.49;54.46
68842;SHT35;55849;48.482;2.332;2023-03-04T19:22:38;9.52;54.71
68842;SHT35;55849;48.482;2.332;2023-03-04T19:25:42;9.52;54.93
68842;SHT35;55849;48.482;2.332;2023-03-04T19:28:44;9.52;55.12
68842;SHT35;55849;48.482;2.332;2023-03-04T19:31:46;9.48;55.33
68842;SHT35;55849;48.482;2.332;2023-03-04T19:34:48;9.51;55.06
68842;SHT35;55849;48.482;2.332;2023-03-04T19:37:50;9.49;54.85
68842;SHT35;55849;48.482;2.332;2023-03-04T19:40:53;9.46;55.27
68842;SHT35;55849;48.482;2.332;2023-03-04T19:43:55;9.43;54.88
68842;SHT35;55849;48.482;2.332;2023-03-04T19:46:57;9.45;54.98
68842;SHT35;55849;48.482;2.332;2023-03-04T19:49:59;9.42;55.03
68842;SHT35;55849;48.482;2.332;2023-03-04T19:53:00;9.45;55.31